sensor_id;sensor_type;location;lat;lon;timestamp;P1;durP1;ratioP1;P2;durP2;ratioP2
13847;SDS011;6994;49.752;6.094;2024-01-25T00:00:21;20.15;;;6.22;;
13847;SDS011;6994;49.752;6.094;2024-01-25T00:02:49;17.67;;;4.03;;
13847;SDS011;6994;49.752;6.094;2024-01-25T00:05:16;26.37;;;4.03;;
13847;SDS011;6994;49.752;6.094;2024-01-25T00:07:47;20.17;;;4.30;;
13847;SDS011;6994;49.752;6.094;2024-01-25T00:10:16;22.60;;;5.25;;
13847;SDS011;6994;49.752;6.094;2024-01-25T00:12:43;26.50;;;4.00;;
13847;SDS011;6994;49.752;6.094;2024-01-25T00:15:11;21.87;;;4.85;;
13847;SDS011;6994;49.752;6.094;2024-01-25T00:17:38;19.87;;;4.90;;
13847;SDS011;6994;49.752;6.094;2024-01-25T00:20:06;17.05;;;3.30;;
13847;SDS011;6994;49.752;6.094;2024-01-25T00:22:33;24.23;;;4.50;;
13847;SDS011;6994;49.752;6.094;2024-01-25T00:25:00;20.25;;;4.03;;
13847;SDS011;6994;49.752;6.094;2024-01-25T00:27:27;15.25;;;3.90;;
13847;SDS011;6994;49.752;6.094;2024-01-25T00:29:55;18.25;;;4.18;;
13847;SDS011;6994;49.752;6.094;2024-01-25T00:32:23;23.10;;;3.97;;
13847;SDS011;6994;49.752;6.094;2024-01-25T00:34:51;18.33;;;4.10;;
13847;SDS011;6994;49.752;6.094;2024-01-25T00:37:19;13.85;;;3.62;;
13847;SDS011;6994;49.752;6.094;2024-01-25T00:39:47;14.43;;;4.47;;
13847;SDS011;6994;49.752;6.094;2024-01-25T00:42:15;21.35;;;3.62;;
13847;SDS011;6994;49.752;6.094;2024-01-25T00:44:43;21.87;;;5.47;;
13847;SDS011;6994;49.752;6.094;2024-01-25T00:47:10;22.70;;;4.43;;
13847;SDS011;6994;49.752;6.094;2024-01-25T00:49:39;25.40;;;6.07;;
13847;SDS011;6994;49.752;6.094;2024-01-25T00:52:06;20.83;;;4.50;;
13847;SDS011;6994;49.752;6.094;2024-01-25T00:54:33;19.70;;;4.97;;
13847;SDS011;6994;49.752;6.094;2024-01-25T00:57:00;15.45;;;3.85;;
13847;SDS011;6994;49.752;6.094;2024-01-25T00:59:28;21.02;;;4.70;;
13847;SDS011;6994;49.752;6.094;2024-01-25T01:01:55;22.98;;;5.87;;
13847;SDS011;6994;49.752;6.094;2024-01-25T01:04:23;17.65;;;3.55;;
13847;SDS011;6994;49.752;6.094;2024-01-25T01:06:50;21.50;;;5.35;;
13847;SDS011;6994;49.752;6.094;2024-01-25T01:09:17;26.52;;;6.37;;
13847;SDS011;6994;49.752;6.094;2024-01-25T01:11:45;20.98;;;5.50;;
13847;SDS011;6994;49.752;6.094;2024-01-25T01:14:13;25.62;;;4.72;;
13847;SDS011;6994;49.752;6.094;2024-01-25T01:16:41;20.17;;;4.07;;
13847;SDS011;6994;49.752;6.094;2024-01-25T01:19:09;16.42;;;4.20;;
13847;SDS011;6994;49.752;6.094;2024-01-25T01:21:37;20.25;;;3.47;;
13847;SDS011;6994;49.752;6.094;2024-01-25T01:24:05;21.27;;;4.43;;
13847;SDS011;6994;49.752;6.094;2024-01-25T01:26:33;22.33;;;4.22;;
13847;SDS011;6994;49.752;6.094;2024-01-25T01:29:01;16.95;;;3.67;;
13847;SDS011;6994;49.752;6.094;2024-01-25T01:31:29;18.75;;;4.87;;
13847;SDS011;6994;49.752;6.094;2024-01-25T01:33:57;20.83;;;4.18;;
13847;SDS011;6994;49.752;6.094;2024-01-25T01:36:25;21.85;;;4.85;;
13847;SDS011;6994;49.752;6.094;2024-01-25T01:38:53;18.75;;;3.92;;
13847;SDS011;6994;49.752;6.094;2024-01-25T01:41:21;15.18;;;3.80;;
13847;SDS011;6994;49.752;6.094;2024-01-25T01:43:53;16.67;;;4.50;;
13847;SDS011;6994;49.752;6.094;2024-01-25T01:46:33;9.70;;;2.50;;
13847;SDS011;6994;49.752;6.094;2024-01-25T01:48:59;11.27;;;2.42;;
13847;SDS011;6994;49.752;6.094;2024-01-25T01:51:26;19.70;;;3.85;;
13847;SDS011;6994;49.752;6.094;2024-01-25T01:53:53;21.65;;;3.10;;
13847;SDS011;6994;49.752;6.094;2024-01-25T01:56:22;17.37;;;4.87;;
13847;SDS011;6994;49.752;6.094;2024-01-25T01:58:49;14.73;;;3.25;;
13847;SDS011;6994;49.752;6.094;2024-01-25T02:01:17;18.85;;;5.22;;
13847;SDS011;6994;49.752;6.094;2024-01-25T02:03:45;17.20;;;2.70;;
13847;SDS011;6994;49.752;6.094;2024-01-25T02:06:13;16.48;;;3.12;;
13847;SDS011;6994;49.752;6.094;2024-01-25T02:08:41;16.87;;;3.65;;
13847;SDS011;6994;49.752;6.094;2024-01-25T02:11:12;16.98;;;3.12;;
13847;SDS011;6994;49.752;6.094;2024-01-25T02:13:40;19.85;;;4.40;;
13847;SDS011;6994;49.752;6.094;2024-01-25T02:16:08;14.05;;;3.72;;
13847;SDS011;6994;49.752;6.094;2024-01-25T02:18:36;18.98;;;4.40;;
13847;SDS011;6994;49.752;6.094;2024-01-25T02:21:04;21.40;;;4.05;;
13847;SDS011;6994;49.752;6.094;2024-01-25T02:23:32;18.92;;;3.97;;
13847;SDS011;6994;49.752;6.094;2024-01-25T02:26:00;21.85;;;3.78;;
13847;SDS011;6994;49.752;6.094;2024-01-25T02:28:28;14.27;;;3.95;;
13847;SDS011;6994;49.752;6.094;2024-01-25T02:30:56;15.43;;;3.97;;
13847;SDS011;6994;49.752;6.094;2024-01-25T02:33:24;22.23;;;3.42;;
13847;SDS011;6994;49.752;6.094;2024-01-25T02:35:52;22.08;;;4.87;;
13847;SDS011;6994;49.752;6.094;2024-01-25T02:38:20;18.65;;;3.40;;
13847;SDS011;6994;49.752;6.094;2024-01-25T02:40:48;14.63;;;3.75;;
13847;SDS011;6994;49.752;6.094;2024-01-25T02:43:16;11.77;;;3.35;;
13847;SDS011;6994;49.752;6.094;2024-01-25T02:45:44;21.02;;;4.70;;
13847;SDS011;6994;49.752;6.094;2024-01-25T02:48:12;17.98;;;3.37;;
13847;SDS011;6994;49.752;6.094;2024-01-25T02:50:40;12.25;;;3.08;;
13847;SDS011;6994;49.752;6.094;2024-01-25T02:53:08;25.15;;;3.92;;
13847;SDS011;6994;49.752;6.094;2024-01-25T02:55:36;24.77;;;5.12;;
13847;SDS011;6994;49.752;6.094;2024-01-25T02:58:04;13.48;;;3.47;;
13847;SDS011;6994;49.752;6.094;2024-01-25T03:00:32;15.10;;;5.50;;
13847;SDS011;6994;49.752;6.094;2024-01-25T03:03:00;14.63;;;4.05;;
13847;SDS011;6994;49.752;6.094;2024-01-25T03:05:27;18.60;;;4.57;;
13847;SDS011;6994;49.752;6.094;2024-01-25T03:07:55;20.30;;;5.30;;
13847;SDS011;6994;49.752;6.094;2024-01-25T03:10:23;20.05;;;4.35;;
13847;SDS011;6994;49.752;6.094;2024-01-25T03:12:51;17.42;;;3.30;;
13847;SDS011;6994;49.752;6.094;2024-01-25T03:15:19;20.62;;;4.85;;
13847;SDS011;6994;49.752;6.094;2024-01-25T03:17:47;26.77;;;4.65;;
13847;SDS011;6994;49.752;6.094;2024-01-25T03:20:15;18.25;;;4.72;;
13847;SDS011;6994;49.752;6.094;2024-01-25T03:22:43;21.70;;;4.68;;
13847;SDS011;6994;49.752;6.094;2024-01-25T03:25:11;21.52;;;3.90;;
13847;SDS011;6994;49.752;6.094;2024-01-25T03:27:39;18.92;;;3.55;;
13847;SDS011;6994;49.752;6.094;2024-01-25T03:30:07;19.42;;;4.45;;
13847;SDS011;6994;49.752;6.094;2024-01-25T03:32:35;19.80;;;4.43;;
13847;SDS011;6994;49.752;6.094;2024-01-25T03:35:02;11.48;;;2.92;;
13847;SDS011;6994;49.752;6.094;2024-01-25T03:37:29;15.93;;;3.97;;
13847;SDS011;6994;49.752;6.094;2024-01-25T03:39:56;22.02;;;3.25;;
13847;SDS011;6994;49.752;6.094;2024-01-25T03:42:23;26.02;;;5.25;;
13847;SDS011;6994;49.752;6.094;2024-01-25T03:44:51;27.98;;;5.10;;
13847;SDS011;6994;49.752;6.094;2024-01-25T03:47:18;10.63;;;3.30;;
13847;SDS011;6994;49.752;6.094;2024-01-25T03:49:45;22.50;;;4.25;;
13847;SDS011;6994;49.752;6.094;2024-01-25T03:52:12;17.23;;;3.30;;
13847;SDS011;6994;49.752;6.094;2024-01-25T03:54:40;21.95;;;5.70;;
13847;SDS011;6994;49.752;6.094;2024-01-25T03:57:08;14.27;;;3.53;;
13847;SDS011;6994;49.752;6.094;2024-01-25T03:59:36;17.45;;;3.28;;
13847;SDS011;6994;49.752;6.094;2024-01-25T04:02:04;12.65;;;3.70;;
13847;SDS011;6994;49.752;6.094;2024-01-25T04:04:32;22.87;;;3.67;;
13847;SDS011;6994;49.752;6.094;2024-01-25T04:07:00;11.10;;;3.30;;
13847;SDS011;6994;49.752;6.094;2024-01-25T04:09:28;14.00;;;4.12;;
13847;SDS011;6994;49.752;6.094;2024-01-25T04:11:56;16.90;;;3.25;;
13847;SDS011;6994;49.752;6.094;2024-01-25T04:14:24;24.02;;;3.85;;
13847;SDS011;6994;49.752;6.094;2024-01-25T04:16:52;21.87;;;4.03;;
13847;SDS011;6994;49.752;6.094;2024-01-25T04:19:20;17.15;;;3.50;;
13847;SDS011;6994;49.752;6.094;2024-01-25T04:21:48;19.20;;;3.80;;
13847;SDS011;6994;49.752;6.094;2024-01-25T04:24:16;15.80;;;2.42;;
13847;SDS011;6994;49.752;6.094;2024-01-25T04:26:44;18.67;;;2.90;;
13847;SDS011;6994;49.752;6.094;2024-01-25T04:29:11;13.32;;;2.90;;
13847;SDS011;6994;49.752;6.094;2024-01-25T04:31:45;27.80;;;6.37;;
13847;SDS011;6994;49.752;6.094;2024-01-25T04:36:46;14.32;;;3.15;;
13847;SDS011;6994;49.752;6.094;2024-01-25T04:39:14;18.25;;;3.87;;
13847;SDS011;6994;49.752;6.094;2024-01-25T04:41:41;16.10;;;3.65;;
13847;SDS011;6994;49.752;6.094;2024-01-25T04:44:08;28.48;;;3.83;;
13847;SDS011;6994;49.752;6.094;2024-01-25T04:46:35;17.60;;;3.53;;
13847;SDS011;6994;49.752;6.094;2024-01-25T04:49:03;25.92;;;5.30;;
13847;SDS011;6994;49.752;6.094;2024-01-25T04:51:30;16.17;;;3.53;;
13847;SDS011;6994;49.752;6.094;2024-01-25T04:53:57;23.05;;;4.15;;
13847;SDS011;6994;49.752;6.094;2024-01-25T04:56:24;26.75;;;6.45;;
13847;SDS011;6994;49.752;6.094;2024-01-25T04:58:51;17.92;;;4.97;;
13847;SDS011;6994;49.752;6.094;2024-01-25T05:01:18;18.23;;;4.93;;
13847;SDS011;6994;49.752;6.094;2024-01-25T05:03:46;21.27;;;4.05;;
13847;SDS011;6994;49.752;6.094;2024-01-25T05:06:13;17.15;;;4.18;;
13847;SDS011;6994;49.752;6.094;2024-01-25T05:08:41;15.07;;;3.65;;
13847;SDS011;6994;49.752;6.094;2024-01-25T05:11:07;22.52;;;5.43;;
13847;SDS011;6994;49.752;6.094;2024-01-25T05:13:34;24.23;;;4.45;;
13847;SDS011;6994;49.752;6.094;2024-01-25T05:16:02;19.58;;;4.87;;
13847;SDS011;6994;49.752;6.094;2024-01-25T05:18:29;29.20;;;5.95;;
13847;SDS011;6994;49.752;6.094;2024-01-25T05:20:56;25.77;;;4.65;;
13847;SDS011;6994;49.752;6.094;2024-01-25T05:23:23;26.60;;;6.28;;
13847;SDS011;6994;49.752;6.094;2024-01-25T05:25:51;23.98;;;4.97;;
13847;SDS011;6994;49.752;6.094;2024-01-25T05:28:18;16.30;;;4.18;;
13847;SDS011;6994;49.752;6.094;2024-01-25T05:30:45;20.45;;;4.45;;
13847;SDS011;6994;49.752;6.094;2024-01-25T05:33:12;15.50;;;4.12;;
13847;SDS011;6994;49.752;6.094;2024-01-25T05:35:40;15.75;;;3.45;;
13847;SDS011;6994;49.752;6.094;2024-01-25T05:38:08;18.87;;;3.42;;
13847;SDS011;6994;49.752;6.094;2024-01-25T05:40:35;19.33;;;3.30;;
13847;SDS011;6994;49.752;6.094;2024-01-25T05:43:03;18.83;;;5.32;;
13847;SDS011;6994;49.752;6.094;2024-01-25T05:45:30;16.35;;;4.50;;
13847;SDS011;6994;49.752;6.094;2024-01-25T05:47:58;21.50;;;4.30;;
13847;SDS011;6994;49.752;6.094;2024-01-25T05:50:25;17.98;;;3.47;;
13847;SDS011;6994;49.752;6.094;2024-01-25T05:52:52;29.58;;;4.55;;
13847;SDS011;6994;49.752;6.094;2024-01-25T05:55:19;23.40;;;4.05;;
13847;SDS011;6994;49.752;6.094;2024-01-25T05:57:47;22.62;;;3.70;;
13847;SDS011;6994;49.752;6.094;2024-01-25T06:00:14;22.83;;;6.12;;
13847;SDS011;6994;49.752;6.094;2024-01-25T06:02:41;17.75;;;4.43;;
13847;SDS011;6994;49.752;6.094;2024-01-25T06:05:09;29.63;;;4.87;;
13847;SDS011;6994;49.752;6.094;2024-01-25T06:07:37;17.52;;;4.32;;
13847;SDS011;6994;49.752;6.094;2024-01-25T06:10:04;10.73;;;3.80;;
13847;SDS011;6994;49.752;6.094;2024-01-25T06:12:31;18.60;;;3.92;;
13847;SDS011;6994;49.752;6.094;2024-01-25T06:14:59;21.55;;;3.55;;
13847;SDS011;6994;49.752;6.094;2024-01-25T06:17:26;24.37;;;4.22;;
13847;SDS011;6994;49.752;6.094;2024-01-25T06:19:53;31.67;;;7.00;;
13847;SDS011;6994;49.752;6.094;2024-01-25T06:22:20;20.83;;;5.55;;
13847;SDS011;6994;49.752;6.094;2024-01-25T06:24:47;22.23;;;4.90;;
13847;SDS011;6994;49.752;6.094;2024-01-25T06:27:15;20.17;;;4.37;;
13847;SDS011;6994;49.752;6.094;2024-01-25T06:29:42;18.77;;;4.95;;
13847;SDS011;6994;49.752;6.094;2024-01-25T06:32:09;16.02;;;4.18;;
13847;SDS011;6994;49.752;6.094;2024-01-25T06:34:36;20.02;;;4.60;;
13847;SDS011;6994;49.752;6.094;2024-01-25T06:37:04;19.73;;;3.80;;
13847;SDS011;6994;49.752;6.094;2024-01-25T06:39:31;17.48;;;3.78;;
13847;SDS011;6994;49.752;6.094;2024-01-25T06:41:58;28.08;;;6.37;;
13847;SDS011;6994;49.752;6.094;2024-01-25T06:44:25;19.48;;;4.65;;
13847;SDS011;6994;49.752;6.094;2024-01-25T06:46:52;30.55;;;6.97;;
13847;SDS011;6994;49.752;6.094;2024-01-25T06:49:20;24.92;;;4.43;;
13847;SDS011;6994;49.752;6.094;2024-01-25T06:51:47;16.05;;;3.62;;
13847;SDS011;6994;49.752;6.094;2024-01-25T06:54:14;22.70;;;4.53;;
13847;SDS011;6994;49.752;6.094;2024-01-25T06:56:41;18.90;;;5.40;;
13847;SDS011;6994;49.752;6.094;2024-01-25T06:59:09;19.85;;;4.40;;
13847;SDS011;6994;49.752;6.094;2024-01-25T07:01:37;25.08;;;4.93;;
13847;SDS011;6994;49.752;6.094;2024-01-25T07:04:04;18.35;;;4.12;;
13847;SDS011;6994;49.752;6.094;2024-01-25T07:06:31;27.48;;;5.32;;
13847;SDS011;6994;49.752;6.094;2024-01-25T07:08:59;18.23;;;3.97;;
13847;SDS011;6994;49.752;6.094;2024-01-25T07:11:26;28.02;;;5.40;;
13847;SDS011;6994;49.752;6.094;2024-01-25T07:13:53;19.98;;;4.20;;
13847;SDS011;6994;49.752;6.094;2024-01-25T07:16:20;19.08;;;4.00;;
13847;SDS011;6994;49.752;6.094;2024-01-25T07:18:48;15.30;;;3.17;;
13847;SDS011;6994;49.752;6.094;2024-01-25T07:21:15;16.20;;;3.37;;
13847;SDS011;6994;49.752;6.094;2024-01-25T07:23:42;16.73;;;4.30;;
13847;SDS011;6994;49.752;6.094;2024-01-25T07:26:15;24.15;;;4.05;;
13847;SDS011;6994;49.752;6.094;2024-01-25T07:28:38;22.80;;;4.32;;
13847;SDS011;6994;49.752;6.094;2024-01-25T07:31:06;15.90;;;3.67;;
13847;SDS011;6994;49.752;6.094;2024-01-25T07:33:35;27.08;;;4.47;;
13847;SDS011;6994;49.752;6.094;2024-01-25T07:36:01;25.08;;;4.68;;
13847;SDS011;6994;49.752;6.094;2024-01-25T07:38:28;15.60;;;4.93;;
13847;SDS011;6994;49.752;6.094;2024-01-25T07:40:55;34.38;;;10.45;;
13847;SDS011;6994;49.752;6.094;2024-01-25T07:43:23;32.53;;;7.97;;
13847;SDS011;6994;49.752;6.094;2024-01-25T07:45:50;25.80;;;6.78;;
13847;SDS011;6994;49.752;6.094;2024-01-25T07:48:17;24.25;;;7.10;;
13847;SDS011;6994;49.752;6.094;2024-01-25T07:50:44;25.42;;;5.20;;
13847;SDS011;6994;49.752;6.094;2024-01-25T07:53:11;28.48;;;8.07;;
13847;SDS011;6994;49.752;6.094;2024-01-25T07:55:39;18.92;;;6.50;;
13847;SDS011;6994;49.752;6.094;2024-01-25T07:58:06;33.30;;;6.15;;
13847;SDS011;6994;49.752;6.094;2024-01-25T08:00:33;22.23;;;4.45;;
13847;SDS011;6994;49.752;6.094;2024-01-25T08:03:00;26.23;;;5.85;;
13847;SDS011;6994;49.752;6.094;2024-01-25T08:05:27;20.70;;;5.10;;
13847;SDS011;6994;49.752;6.094;2024-01-25T08:07:55;11.73;;;4.70;;
13847;SDS011;6994;49.752;6.094;2024-01-25T08:10:22;26.42;;;6.25;;
13847;SDS011;6994;49.752;6.094;2024-01-25T08:12:49;32.58;;;7.22;;
13847;SDS011;6994;49.752;6.094;2024-01-25T08:15:16;22.70;;;5.62;;
13847;SDS011;6994;49.752;6.094;2024-01-25T08:17:44;21.58;;;5.32;;
13847;SDS011;6994;49.752;6.094;2024-01-25T08:20:11;24.60;;;4.70;;
13847;SDS011;6994;49.752;6.094;2024-01-25T08:22:38;23.40;;;4.78;;
13847;SDS011;6994;49.752;6.094;2024-01-25T08:25:05;24.55;;;4.72;;
13847;SDS011;6994;49.752;6.094;2024-01-25T08:27:32;15.73;;;5.07;;
13847;SDS011;6994;49.752;6.094;2024-01-25T08:30:00;22.65;;;5.28;;
13847;SDS011;6994;49.752;6.094;2024-01-25T08:32:27;23.60;;;5.20;;
13847;SDS011;6994;49.752;6.094;2024-01-25T08:34:54;16.98;;;4.97;;
13847;SDS011;6994;49.752;6.094;2024-01-25T08:37:21;15.93;;;4.20;;
13847;SDS011;6994;49.752;6.094;2024-01-25T08:39:48;26.23;;;7.47;;
13847;SDS011;6994;49.752;6.094;2024-01-25T08:42:16;22.25;;;6.72;;
13847;SDS011;6994;49.752;6.094;2024-01-25T08:44:43;26.27;;;6.47;;
13847;SDS011;6994;49.752;6.094;2024-01-25T08:47:10;31.12;;;6.03;;
13847;SDS011;6994;49.752;6.094;2024-01-25T08:49:38;28.83;;;6.07;;
13847;SDS011;6994;49.752;6.094;2024-01-25T08:52:05;24.23;;;5.72;;
13847;SDS011;6994;49.752;6.094;2024-01-25T08:54:33;28.77;;;5.07;;
13847;SDS011;6994;49.752;6.094;2024-01-25T08:57:00;23.42;;;5.80;;
13847;SDS011;6994;49.752;6.094;2024-01-25T08:59:28;17.83;;;5.03;;
13847;SDS011;6994;49.752;6.094;2024-01-25T09:01:55;20.75;;;4.82;;
13847;SDS011;6994;49.752;6.094;2024-01-25T09:04:22;21.12;;;6.28;;
13847;SDS011;6994;49.752;6.094;2024-01-25T09:06:49;18.48;;;5.50;;
13847;SDS011;6994;49.752;6.094;2024-01-25T09:09:16;15.13;;;5.22;;
13847;SDS011;6994;49.752;6.094;2024-01-25T09:11:44;13.32;;;4.82;;
13847;SDS011;6994;49.752;6.094;2024-01-25T09:14:11;18.35;;;4.82;;
13847;SDS011;6994;49.752;6.094;2024-01-25T09:16:38;12.00;;;4.20;;
13847;SDS011;6994;49.752;6.094;2024-01-25T09:19:05;12.63;;;5.00;;
13847;SDS011;6994;49.752;6.094;2024-01-25T09:21:32;8.95;;;3.83;;
13847;SDS011;6994;49.752;6.094;2024-01-25T09:24:00;12.32;;;4.70;;
13847;SDS011;6994;49.752;6.094;2024-01-25T09:26:27;10.75;;;4.68;;
13847;SDS011;6994;49.752;6.094;2024-01-25T09:28:55;9.10;;;4.90;;
13847;SDS011;6994;49.752;6.094;2024-01-25T09:31:23;7.37;;;3.83;;
13847;SDS011;6994;49.752;6.094;2024-01-25T09:33:51;12.23;;;4.85;;
13847;SDS011;6994;49.752;6.094;2024-01-25T09:36:19;10.82;;;4.28;;
13847;SDS011;6994;49.752;6.094;2024-01-25T09:38:47;8.85;;;5.07;;
13847;SDS011;6994;49.752;6.094;2024-01-25T09:41:14;7.10;;;3.55;;
13847;SDS011;6994;49.752;6.094;2024-01-25T09:43:41;11.30;;;4.03;;
13847;SDS011;6994;49.752;6.094;2024-01-25T09:46:10;8.43;;;3.95;;
13847;SDS011;6994;49.752;6.094;2024-01-25T09:48:37;15.23;;;4.97;;
13847;SDS011;6994;49.752;6.094;2024-01-25T09:51:05;7.93;;;4.93;;
13847;SDS011;6994;49.752;6.094;2024-01-25T09:53:32;10.70;;;4.65;;
13847;SDS011;6994;49.752;6.094;2024-01-25T09:56:05;5.97;;;3.45;;
13847;SDS011;6994;49.752;6.094;2024-01-25T09:58:34;7.65;;;3.90;;
13847;SDS011;6994;49.752;6.094;2024-01-25T10:00:59;11.57;;;4.47;;
13847;SDS011;6994;49.752;6.094;2024-01-25T10:03:27;8.02;;;4.03;;
13847;SDS011;6994;49.752;6.094;2024-01-25T10:05:55;7.47;;;3.70;;
13847;SDS011;6994;49.752;6.094;2024-01-25T10:08:22;5.95;;;3.20;;
13847;SDS011;6994;49.752;6.094;2024-01-25T10:10:49;8.95;;;3.80;;
13847;SDS011;6994;49.752;6.094;2024-01-25T10:13:17;7.25;;;4.00;;
13847;SDS011;6994;49.752;6.094;2024-01-25T10:15:44;7.43;;;3.80;;
13847;SDS011;6994;49.752;6.094;2024-01-25T10:18:11;10.23;;;4.05;;
13847;SDS011;6994;49.752;6.094;2024-01-25T10:20:39;9.40;;;3.12;;
13847;SDS011;6994;49.752;6.094;2024-01-25T10:23:06;8.43;;;3.60;;
13847;SDS011;6994;49.752;6.094;2024-01-25T10:25:35;10.80;;;3.37;;
13847;SDS011;6994;49.752;6.094;2024-01-25T10:28:03;9.10;;;3.62;;
13847;SDS011;6994;49.752;6.094;2024-01-25T10:30:34;13.57;;;3.33;;
13847;SDS011;6994;49.752;6.094;2024-01-25T10:33:04;5.25;;;2.95;;
13847;SDS011;6994;49.752;6.094;2024-01-25T10:35:28;8.45;;;3.55;;
13847;SDS011;6994;49.752;6.094;2024-01-25T10:37:55;12.90;;;4.28;;
13847;SDS011;6994;49.752;6.094;2024-01-25T10:40:22;12.27;;;4.65;;
13847;SDS011;6994;49.752;6.094;2024-01-25T10:42:49;13.65;;;4.53;;
13847;SDS011;6994;49.752;6.094;2024-01-25T10:45:16;12.02;;;4.62;;
13847;SDS011;6994;49.752;6.094;2024-01-25T10:47:44;10.15;;;3.92;;
13847;SDS011;6994;49.752;6.094;2024-01-25T10:50:12;10.63;;;5.18;;
13847;SDS011;6994;49.752;6.094;2024-01-25T10:52:40;14.27;;;4.78;;
13847;SDS011;6994;49.752;6.094;2024-01-25T10:55:08;12.37;;;4.10;;
13847;SDS011;6994;49.752;6.094;2024-01-25T10:57:36;13.50;;;4.35;;
13847;SDS011;6994;49.752;6.094;2024-01-25T11:00:09;12.82;;;4.43;;
13847;SDS011;6994;49.752;6.094;2024-01-25T11:02:38;17.92;;;4.20;;
13847;SDS011;6994;49.752;6.094;2024-01-25T11:05:06;14.35;;;5.87;;
13847;SDS011;6994;49.752;6.094;2024-01-25T11:07:45;18.33;;;6.28;;
13847;SDS011;6994;49.752;6.094;2024-01-25T11:10:27;12.95;;;5.12;;
13847;SDS011;6994;49.752;6.094;2024-01-25T11:12:49;17.35;;;4.85;;
13847;SDS011;6994;49.752;6.094;2024-01-25T11:15:22;17.37;;;4.43;;
13847;SDS011;6994;49.752;6.094;2024-01-25T11:17:57;20.10;;;5.43;;
13847;SDS011;6994;49.752;6.094;2024-01-25T11:20:25;15.40;;;5.47;;
13847;SDS011;6994;49.752;6.094;2024-01-25T11:22:58;17.55;;;5.55;;
13847;SDS011;6994;49.752;6.094;2024-01-25T11:25:27;10.80;;;3.83;;
13847;SDS011;6994;49.752;6.094;2024-01-25T11:27:54;20.48;;;7.00;;
13847;SDS011;6994;49.752;6.094;2024-01-25T11:30:22;23.62;;;6.57;;
13847;SDS011;6994;49.752;6.094;2024-01-25T11:32:50;24.08;;;6.32;;
13847;SDS011;6994;49.752;6.094;2024-01-25T11:35:17;18.35;;;7.45;;
13847;SDS011;6994;49.752;6.094;2024-01-25T11:37:47;16.30;;;6.65;;
13847;SDS011;6994;49.752;6.094;2024-01-25T11:40:15;20.20;;;6.07;;
13847;SDS011;6994;49.752;6.094;2024-01-25T11:42:43;24.08;;;7.47;;
13847;SDS011;6994;49.752;6.094;2024-01-25T11:45:11;20.58;;;6.57;;
13847;SDS011;6994;49.752;6.094;2024-01-25T11:47:38;24.65;;;5.82;;
13847;SDS011;6994;49.752;6.094;2024-01-25T11:50:05;23.87;;;6.40;;
13847;SDS011;6994;49.752;6.094;2024-01-25T11:52:33;19.40;;;6.87;;
13847;SDS011;6994;49.752;6.094;2024-01-25T11:55:03;23.08;;;6.82;;
13847;SDS011;6994;49.752;6.094;2024-01-25T11:57:30;26.45;;;5.95;;
13847;SDS011;6994;49.752;6.094;2024-01-25T11:59:58;17.60;;;6.25;;
13847;SDS011;6994;49.752;6.094;2024-01-25T12:02:26;20.80;;;6.78;;
13847;SDS011;6994;49.752;6.094;2024-01-25T12:04:56;22.23;;;6.65;;
13847;SDS011;6994;49.752;6.094;2024-01-25T12:07:22;20.48;;;6.10;;
13847;SDS011;6994;49.752;6.094;2024-01-25T12:09:57;18.50;;;6.45;;
13847;SDS011;6994;49.752;6.094;2024-01-25T12:12:26;22.55;;;6.32;;
13847;SDS011;6994;49.752;6.094;2024-01-25T12:14:58;15.48;;;6.22;;
13847;SDS011;6994;49.752;6.094;2024-01-25T12:17:27;23.80;;;5.97;;
13847;SDS011;6994;49.752;6.094;2024-01-25T12:19:58;20.20;;;7.28;;
13847;SDS011;6994;49.752;6.094;2024-01-25T12:22:29;18.27;;;6.15;;
13847;SDS011;6994;49.752;6.094;2024-01-25T12:24:56;25.12;;;7.47;;
13847;SDS011;6994;49.752;6.094;2024-01-25T12:27:24;28.10;;;9.50;;
13847;SDS011;6994;49.752;6.094;2024-01-25T12:29:50;27.50;;;7.95;;
13847;SDS011;6994;49.752;6.094;2024-01-25T12:32:17;26.70;;;7.50;;
13847;SDS011;6994;49.752;6.094;2024-01-25T12:34:55;23.35;;;8.30;;
13847;SDS011;6994;49.752;6.094;2024-01-25T12:37:22;15.98;;;7.10;;
13847;SDS011;6994;49.752;6.094;2024-01-25T12:39:50;28.48;;;8.00;;
13847;SDS011;6994;49.752;6.094;2024-01-25T12:42:19;20.40;;;7.10;;
13847;SDS011;6994;49.752;6.094;2024-01-25T12:44:46;23.23;;;7.82;;
13847;SDS011;6994;49.752;6.094;2024-01-25T12:47:14;20.98;;;7.12;;
13847;SDS011;6994;49.752;6.094;2024-01-25T12:49:43;21.75;;;7.25;;
13847;SDS011;6994;49.752;6.094;2024-01-25T12:52:10;27.65;;;6.78;;
13847;SDS011;6994;49.752;6.094;2024-01-25T12:54:37;19.35;;;6.47;;
13847;SDS011;6994;49.752;6.094;2024-01-25T12:57:04;30.55;;;10.32;;
13847;SDS011;6994;49.752;6.094;2024-01-25T12:59:32;36.22;;;8.95;;
13847;SDS011;6994;49.752;6.094;2024-01-25T13:01:58;27.40;;;7.65;;
13847;SDS011;6994;49.752;6.094;2024-01-25T13:04:26;30.08;;;9.90;;
13847;SDS011;6994;49.752;6.094;2024-01-25T13:06:55;22.42;;;6.97;;
13847;SDS011;6994;49.752;6.094;2024-01-25T13:09:23;19.67;;;6.15;;
13847;SDS011;6994;49.752;6.094;2024-01-25T13:11:50;18.40;;;5.97;;
13847;SDS011;6994;49.752;6.094;2024-01-25T13:14:17;19.83;;;5.72;;
13847;SDS011;6994;49.752;6.094;2024-01-25T13:16:44;20.33;;;6.70;;
13847;SDS011;6994;49.752;6.094;2024-01-25T13:19:11;16.98;;;6.18;;
13847;SDS011;6994;49.752;6.094;2024-01-25T13:21:38;18.37;;;6.25;;
13847;SDS011;6994;49.752;6.094;2024-01-25T13:24:06;16.20;;;5.30;;
13847;SDS011;6994;49.752;6.094;2024-01-25T13:26:34;15.55;;;5.72;;
13847;SDS011;6994;49.752;6.094;2024-01-25T13:29:01;17.40;;;5.30;;
13847;SDS011;6994;49.752;6.094;2024-01-25T13:31:28;17.70;;;5.57;;
13847;SDS011;6994;49.752;6.094;2024-01-25T13:33:55;17.35;;;4.80;;
13847;SDS011;6994;49.752;6.094;2024-01-25T13:36:22;15.73;;;6.18;;
13847;SDS011;6994;49.752;6.094;2024-01-25T13:38:50;14.57;;;4.72;;
13847;SDS011;6994;49.752;6.094;2024-01-25T13:41:18;15.27;;;5.78;;
13847;SDS011;6994;49.752;6.094;2024-01-25T13:43:46;9.95;;;4.50;;
13847;SDS011;6994;49.752;6.094;2024-01-25T13:46:13;11.98;;;4.87;;
13847;SDS011;6994;49.752;6.094;2024-01-25T13:48:41;12.80;;;4.30;;
13847;SDS011;6994;49.752;6.094;2024-01-25T13:51:08;19.52;;;6.70;;
13847;SDS011;6994;49.752;6.094;2024-01-25T13:53:35;15.18;;;5.62;;
13847;SDS011;6994;49.752;6.094;2024-01-25T13:56:02;25.50;;;5.10;;
13847;SDS011;6994;49.752;6.094;2024-01-25T13:58:30;16.83;;;4.87;;
13847;SDS011;6994;49.752;6.094;2024-01-25T14:00:58;10.20;;;4.47;;
13847;SDS011;6994;49.752;6.094;2024-01-25T14:03:26;14.20;;;5.10;;
13847;SDS011;6994;49.752;6.094;2024-01-25T14:05:53;11.55;;;4.57;;
13847;SDS011;6994;49.752;6.094;2024-01-25T14:08:21;17.60;;;4.53;;
13847;SDS011;6994;49.752;6.094;2024-01-25T14:10:48;15.43;;;5.97;;
13847;SDS011;6994;49.752;6.094;2024-01-25T14:13:15;17.60;;;5.60;;
13847;SDS011;6994;49.752;6.094;2024-01-25T14:15:42;11.00;;;4.28;;
13847;SDS011;6994;49.752;6.094;2024-01-25T14:18:10;7.72;;;3.20;;
13847;SDS011;6994;49.752;6.094;2024-01-25T14:20:38;8.02;;;3.37;;
13847;SDS011;6994;49.752;6.094;2024-01-25T14:23:06;9.70;;;3.00;;
13847;SDS011;6994;49.752;6.094;2024-01-25T14:25:34;8.85;;;2.08;;
13847;SDS011;6994;49.752;6.094;2024-01-25T14:28:02;9.27;;;3.33;;
13847;SDS011;6994;49.752;6.094;2024-01-25T14:30:30;7.87;;;2.45;;
13847;SDS011;6994;49.752;6.094;2024-01-25T14:32:58;6.57;;;1.95;;
13847;SDS011;6994;49.752;6.094;2024-01-25T14:35:25;4.45;;;1.80;;
13847;SDS011;6994;49.752;6.094;2024-01-25T14:37:52;5.30;;;1.58;;
13847;SDS011;6994;49.752;6.094;2024-01-25T14:40:20;9.35;;;2.40;;
13847;SDS011;6994;49.752;6.094;2024-01-25T14:42:47;2.80;;;2.00;;
13847;SDS011;6994;49.752;6.094;2024-01-25T14:45:14;6.78;;;2.00;;
13847;SDS011;6994;49.752;6.094;2024-01-25T14:47:41;9.55;;;2.33;;
13847;SDS011;6994;49.752;6.094;2024-01-25T14:50:09;7.85;;;2.05;;
13847;SDS011;6994;49.752;6.094;2024-01-25T14:52:36;3.97;;;1.70;;